createdAt,value
2023-05-04T00:00:59.071Z,59.67
2023-05-04T00:03:26.270Z,59.63
2023-05-04T00:05:53.244Z,59.78
2023-05-04T00:08:20.438Z,59.37
2023-05-04T00:10:47.669Z,59.31
2023-05-04T00:13:14.644Z,59.08
2023-05-04T00:15:41.638Z,59.30
2023-05-04T00:18:08.689Z,59.56
2023-05-04T00:20:36.105Z,59.25
2023-05-04T00:23:03.143Z,59.89
2023-05-04T00:25:30.188Z,59.68
2023-05-04T00:27:57.395Z,59.39
2023-05-04T00:30:24.331Z,59.04
2023-05-04T00:32:51.363Z,58.94
2023-05-04T00:35:18.415Z,58.49
2023-05-04T00:37:46.554Z,58.68
2023-05-04T00:40:13.712Z,58.81
2023-05-04T00:42:40.761Z,58.32
2023-05-04T00:45:08.279Z,57.86
2023-05-04T00:47:36.097Z,57.68
2023-05-04T00:50:04.569Z,57.87
2023-05-04T00:52:32.228Z,57.66
2023-05-04T00:55:01.571Z,57.97
2023-05-04T00:57:28.540Z,57.67
2023-05-04T00:59:56.796Z,57.63
2023-05-04T01:02:23.766Z,57.85
2023-05-04T01:04:51.140Z,57.45
2023-05-04T01:07:43.125Z,56.86
2023-05-04T01:10:15.651Z,57.00
2023-05-04T01:13:10.941Z,56.91
2023-05-04T01:15:38.671Z,56.41
2023-05-04T01:18:06.336Z,56.82
2023-05-04T01:20:34.147Z,56.43
2023-05-04T01:23:03.108Z,56.83
2023-05-04T01:25:43.008Z,56.93
2023-05-04T01:28:24.455Z,56.75
2023-05-04T01:30:55.681Z,56.65
2023-05-04T01:33:23.523Z,56.31
2023-05-04T01:35:50.746Z,56.28
2023-05-04T01:38:18.498Z,56.41
2023-05-04T01:40:45.396Z,56.35
2023-05-04T01:43:12.841Z,56.29
2023-05-04T01:45:39.759Z,56.31
2023-05-04T01:48:06.902Z,56.32
2023-05-04T01:50:33.800Z,55.75
2023-05-04T01:53:02.417Z,55.83
2023-05-04T01:55:29.370Z,55.95
2023-05-04T01:57:56.314Z,55.71
2023-05-04T02:00:23.399Z,55.90
2023-05-04T02:02:50.360Z,55.71
2023-05-04T02:05:19.494Z,56.24
2023-05-04T02:07:46.515Z,56.08
2023-05-04T02:10:13.655Z,56.14
2023-05-04T02:12:43.201Z,55.81
2023-05-04T02:15:10.993Z,56.03
2023-05-04T02:17:38.048Z,55.80
2023-05-04T02:20:05.968Z,55.71
2023-05-04T02:22:33.270Z,55.98
2023-05-04T02:25:00.213Z,55.78
2023-05-04T02:27:27.086Z,55.68
2023-05-04T02:29:54.419Z,55.76
2023-05-04T02:32:21.399Z,55.81
2023-05-04T02:34:50.123Z,56.14
2023-05-04T02:37:17.120Z,55.89
2023-05-04T02:39:44.136Z,56.31
2023-05-04T02:42:11.214Z,56.12
2023-05-04T02:44:38.197Z,56.04
2023-05-04T02:47:06.012Z,56.55
2023-05-04T02:49:33.009Z,56.52
2023-05-04T02:52:00.002Z,56.63
2023-05-04T02:54:27.044Z,56.72
2023-05-04T02:56:54.027Z,56.84
2023-05-04T02:59:21.056Z,57.64
2023-05-04T03:01:48.323Z,57.27
2023-05-04T03:04:15.441Z,57.41
2023-05-04T03:06:42.590Z,57.54
2023-05-04T03:09:10.492Z,57.11
2023-05-04T03:11:37.427Z,57.00
2023-05-04T03:14:04.419Z,57.14
2023-05-04T03:16:31.435Z,57.06
2023-05-04T03:18:58.455Z,57.11
2023-05-04T03:21:25.553Z,56.74
2023-05-04T03:23:53.258Z,56.95
2023-05-04T03:26:20.264Z,56.84
2023-05-04T03:28:47.922Z,56.67
2023-05-04T03:31:14.943Z,56.65
2023-05-04T03:33:42.492Z,57.15
2023-05-04T03:36:09.641Z,56.77
2023-05-04T03:38:38.706Z,57.14
2023-05-04T03:41:06.050Z,56.95
2023-05-04T03:43:33.121Z,57.23
2023-05-04T03:46:00.552Z,57.18
2023-05-04T03:48:27.647Z,57.48
2023-05-04T03:50:54.990Z,57.25
2023-05-04T03:53:22.004Z,57.29
2023-05-04T03:55:49.014Z,57.12
2023-05-04T03:58:16.008Z,57.13
2023-05-04T04:00:42.995Z,58.02
2023-05-04T04:03:15.122Z,57.47
2023-05-04T04:05:42.274Z,57.57
2023-05-04T04:08:09.690Z,57.83
2023-05-04T04:10:37.445Z,57.08
2023-05-04T04:13:04.510Z,57.34
2023-05-04T04:15:32.149Z,57.50
2023-05-04T04:17:59.214Z,58.02
2023-05-04T04:20:26.524Z,57.70
2023-05-04T04:22:53.650Z,57.90
2023-05-04T04:25:20.636Z,57.79
2023-05-04T04:27:47.575Z,57.25
2023-05-04T04:30:14.857Z,57.36
2023-05-04T04:32:42.107Z,57.73
2023-05-04T04:35:09.354Z,57.40
2023-05-04T04:37:36.365Z,57.59
2023-05-04T04:40:04.327Z,57.72
2023-05-04T04:42:32.386Z,57.75
2023-05-04T04:44:59.454Z,57.68
2023-05-04T04:47:26.915Z,57.82
2023-05-04T04:49:54.105Z,57.73
2023-05-04T04:52:21.673Z,57.71
2023-05-04T04:54:48.705Z,57.82
2023-05-04T04:57:15.635Z,58.64
2023-05-04T04:59:42.583Z,58.08
2023-05-04T05:02:09.777Z,58.14
2023-05-04T05:04:41.273Z,57.58
2023-05-04T05:07:10.967Z,58.38
2023-05-04T05:09:38.585Z,57.79
2023-05-04T05:12:06.091Z,58.42
2023-05-04T05:14:33.198Z,58.51
2023-05-04T05:17:00.468Z,58.07
2023-05-04T05:19:27.676Z,58.41
2023-05-04T05:21:55.011Z,58.20
2023-05-04T05:24:22.004Z,58.26
2023-05-04T05:26:49.051Z,58.53
2023-05-04T05:29:15.978Z,58.22
2023-05-04T05:31:42.955Z,58.25
2023-05-04T05:34:09.895Z,58.99
2023-05-04T05:36:36.918Z,58.01
2023-05-04T05:39:04.507Z,58.24
2023-05-04T05:41:31.548Z,57.62
2023-05-04T05:43:58.798Z,57.41
2023-05-04T05:46:26.054Z,57.64
2023-05-04T05:48:52.952Z,57.59
2023-05-04T05:51:19.931Z,57.11
2023-05-04T05:53:47.080Z,57.33
2023-05-04T05:56:14.950Z,56.73
2023-05-04T05:58:41.913Z,56.88
2023-05-04T06:01:09.165Z,56.32
2023-05-04T06:03:36.408Z,54.49
2023-05-04T06:06:03.539Z,52.65
2023-05-04T06:08:31.165Z,50.90
2023-05-04T06:10:58.169Z,48.33
2023-05-04T06:13:25.154Z,46.58
2023-05-04T06:15:53.530Z,44.68
2023-05-04T06:18:21.633Z,43.11
2023-05-04T06:20:48.743Z,41.53
2023-05-04T06:23:16.641Z,40.16
2023-05-04T06:25:43.634Z,38.26
2023-05-04T06:28:10.669Z,37.26
2023-05-04T06:30:37.676Z,37.11
2023-05-04T06:33:04.736Z,35.77
2023-05-04T06:35:32.091Z,34.09
2023-05-04T06:37:59.057Z,33.76
2023-05-04T06:40:26.673Z,33.08
2023-05-04T06:42:53.848Z,32.76
2023-05-04T06:45:20.790Z,32.29
2023-05-04T06:47:48.054Z,30.19
2023-05-04T06:50:16.083Z,31.05
2023-05-04T06:52:45.009Z,29.85
2023-05-04T06:55:12.300Z,29.29
2023-05-04T06:57:39.469Z,28.31
2023-05-04T07:00:08.463Z,29.18
2023-05-04T07:02:35.968Z,29.05
2023-05-04T07:05:04.037Z,28.39
2023-05-04T07:07:31.193Z,27.95
2023-05-04T07:10:01.127Z,27.30
2023-05-04T07:12:28.481Z,26.80
2023-05-04T07:14:55.429Z,26.97
2023-05-04T07:17:25.519Z,26.41
2023-05-04T07:19:52.718Z,26.94
2023-05-04T07:22:20.991Z,26.43
2023-05-04T07:24:48.053Z,26.59
2023-05-04T07:27:14.941Z,25.77
2023-05-04T07:29:41.858Z,24.45
2023-05-04T07:32:09.500Z,24.68
2023-05-04T07:34:45.166Z,24.95
2023-05-04T07:37:13.609Z,24.62
2023-05-04T07:39:40.584Z,25.27
2023-05-04T07:42:08.546Z,24.24
2023-05-04T07:44:35.484Z,23.78
2023-05-04T07:47:02.662Z,24.25
2023-05-04T07:49:29.623Z,23.06
2023-05-04T07:51:56.564Z,23.91
2023-05-04T07:54:23.619Z,23.69
2023-05-04T07:56:50.779Z,23.62
2023-05-04T07:59:18.938Z,23.03
2023-05-04T08:01:46.640Z,22.49
2023-05-04T08:04:13.577Z,21.28
2023-05-04T08:06:40.588Z,22.43
2023-05-04T08:09:08.100Z,21.45
2023-05-04T08:11:35.149Z,21.03
2023-05-04T08:14:02.283Z,21.28
2023-05-04T08:16:29.629Z,21.67
2023-05-04T08:18:57.313Z,21.52
2023-05-04T08:21:24.352Z,21.09
2023-05-04T08:23:51.516Z,21.05
2023-05-04T08:26:19.837Z,19.58
2023-05-04T08:28:46.948Z,19.46
2023-05-04T08:31:13.984Z,18.58
2023-05-04T08:33:40.928Z,18.65
2023-05-04T08:36:09.845Z,18.57
2023-05-04T08:38:36.862Z,19.44
2023-05-04T08:41:07.433Z,19.31
2023-05-04T08:43:37.653Z,18.48
2023-05-04T08:46:06.307Z,19.07
2023-05-04T08:48:37.088Z,19.25
2023-05-04T08:51:06.183Z,19.65
2023-05-04T08:53:40.439Z,20.32
2023-05-04T08:56:09.732Z,21.56
2023-05-04T08:58:38.287Z,20.94
2023-05-04T09:01:07.971Z,21.07
2023-05-04T09:03:35.258Z,21.08
2023-05-04T09:06:02.937Z,22.10
2023-05-04T09:08:30.032Z,23.01
2023-05-04T09:10:57.018Z,23.07
2023-05-04T09:13:23.966Z,24.13
2023-05-04T09:15:55.478Z,24.52
2023-05-04T09:18:23.330Z,24.87
2023-05-04T09:20:50.402Z,25.64
2023-05-04T09:23:18.344Z,27.18
2023-05-04T09:25:52.433Z,24.96
2023-05-04T09:28:22.004Z,28.37
2023-05-04T09:30:51.847Z,28.71
2023-05-04T09:33:27.379Z,29.87
2023-05-04T09:35:54.474Z,27.49
2023-05-04T09:38:26.876Z,25.27
2023-05-04T09:40:54.106Z,24.95
2023-05-04T09:43:21.179Z,25.96
2023-05-04T09:45:49.114Z,25.68
2023-05-04T09:48:25.718Z,27.08
2023-05-04T09:50:58.171Z,30.90
2023-05-04T09:53:31.749Z,31.53
2023-05-04T09:56:06.479Z,32.14
2023-05-04T09:58:35.756Z,32.30
2023-05-04T10:01:03.321Z,36.39
2023-05-04T10:03:30.659Z,38.81
2023-05-04T10:06:03.583Z,39.92
2023-05-04T10:08:32.631Z,39.10
2023-05-04T10:10:59.513Z,39.72
2023-05-04T10:13:26.708Z,40.36
2023-05-04T10:16:25.091Z,40.54
2023-05-04T10:18:52.093Z,42.32
2023-05-04T10:21:31.270Z,43.72
2023-05-04T10:23:58.474Z,43.30
2023-05-04T10:26:59.582Z,43.16
2023-05-04T10:29:29.823Z,43.60
2023-05-04T10:31:57.148Z,43.29
2023-05-04T10:34:27.114Z,41.36
2023-05-04T10:36:54.206Z,42.74
2023-05-04T10:39:23.123Z,42.94
2023-05-04T10:42:09.053Z,41.68
2023-05-04T10:44:48.745Z,42.71
2023-05-04T10:47:16.134Z,42.80
2023-05-04T10:49:43.092Z,44.58
2023-05-04T10:52:18.018Z,45.57
2023-05-04T10:54:45.584Z,45.36
2023-05-04T10:57:17.626Z,45.27
2023-05-04T10:59:57.541Z,45.75
2023-05-04T11:02:29.333Z,44.73
2023-05-04T11:05:04.451Z,44.97
2023-05-04T11:07:39.165Z,45.70
2023-05-04T11:10:08.415Z,46.59
2023-05-04T11:12:36.131Z,46.58
2023-05-04T11:15:08.350Z,48.31
2023-05-04T11:17:44.627Z,48.55
2023-05-04T11:20:12.275Z,48.25
2023-05-04T11:22:40.236Z,48.73
2023-05-04T11:25:08.960Z,50.58
2023-05-04T11:27:35.873Z,50.39
2023-05-04T11:30:04.829Z,52.26
2023-05-04T11:32:35.224Z,52.56
2023-05-04T11:35:04.513Z,51.83
2023-05-04T11:37:39.351Z,54.05
2023-05-04T11:40:27.043Z,53.54
2023-05-04T11:42:57.243Z,52.32
2023-05-04T11:45:30.007Z,51.75
2023-05-04T11:47:58.759Z,51.05
2023-05-04T11:50:27.013Z,51.25
2023-05-04T11:53:13.760Z,51.56
2023-05-04T11:55:41.969Z,51.45
2023-05-04T11:58:10.756Z,51.91
2023-05-04T12:00:46.058Z,52.41
2023-05-04T12:03:15.771Z,54.15
2023-05-04T12:05:50.952Z,52.84
2023-05-04T12:08:35.087Z,54.03
2023-05-04T12:11:16.379Z,52.38
2023-05-04T12:13:49.536Z,51.68
2023-05-04T12:16:18.465Z,52.61
2023-05-04T12:18:46.962Z,51.84
2023-05-04T12:21:24.233Z,52.75
2023-05-04T12:23:51.199Z,54.74
2023-05-04T12:26:19.722Z,54.82
2023-05-04T12:28:47.553Z,55.03
2023-05-04T12:31:14.639Z,55.13
2023-05-04T12:33:41.943Z,55.32
2023-05-04T12:36:10.287Z,56.74
2023-05-04T12:38:40.607Z,57.46
2023-05-04T12:41:10.947Z,56.71
2023-05-04T12:43:38.393Z,56.05
2023-05-04T12:46:05.453Z,55.36
2023-05-04T12:48:33.514Z,54.71
2023-05-04T12:51:01.709Z,52.69
2023-05-04T12:53:30.243Z,53.09
2023-05-04T12:55:57.447Z,52.02
2023-05-04T12:58:24.462Z,51.18
2023-05-04T13:00:51.914Z,51.46
2023-05-04T13:03:18.998Z,50.98
2023-05-04T13:05:47.608Z,50.10
2023-05-04T13:08:14.648Z,49.16
2023-05-04T13:10:41.632Z,49.08
2023-05-04T13:13:09.081Z,48.73
2023-05-04T13:15:36.182Z,49.77
2023-05-04T13:18:03.571Z,49.83
2023-05-04T13:20:30.911Z,49.96
2023-05-04T13:22:58.624Z,49.68
2023-05-04T13:25:25.855Z,49.68
2023-05-04T13:27:53.454Z,49.92
2023-05-04T13:30:21.904Z,50.15
2023-05-04T13:32:49.383Z,50.46
2023-05-04T13:35:16.684Z,50.84
2023-05-04T13:37:43.736Z,50.78
2023-05-04T13:40:11.397Z,51.76
2023-05-04T13:42:38.513Z,52.15
2023-05-04T13:45:06.906Z,52.22
2023-05-04T13:47:34.703Z,52.44
2023-05-04T13:50:02.158Z,52.30
2023-05-04T13:52:29.155Z,52.28
2023-05-04T13:54:56.791Z,51.94
2023-05-04T13:57:23.859Z,51.77
2023-05-04T14:00:05.185Z,51.96
2023-05-04T14:02:40.383Z,52.33
2023-05-04T14:05:08.356Z,52.56
2023-05-04T14:07:35.617Z,52.85
2023-05-04T14:10:02.877Z,52.98
2023-05-04T14:12:29.912Z,53.73
2023-05-04T14:14:59.026Z,53.77
2023-05-04T14:17:26.049Z,53.69
2023-05-04T14:19:53.113Z,53.95
2023-05-04T14:22:20.146Z,53.75
2023-05-04T14:24:47.174Z,54.12
2023-05-04T14:27:14.181Z,54.19
2023-05-04T14:29:41.244Z,54.13
2023-05-04T14:32:08.368Z,54.04
2023-05-04T14:34:36.293Z,54.58
2023-05-04T14:37:03.313Z,54.50
2023-05-04T14:39:30.241Z,54.24
2023-05-04T14:41:58.149Z,54.22
2023-05-04T14:44:26.236Z,54.06
2023-05-04T14:46:53.329Z,55.68
2023-05-04T14:49:34.846Z,56.62
2023-05-04T14:52:04.020Z,57.06
2023-05-04T14:54:30.992Z,57.39
2023-05-04T14:56:59.099Z,57.68
2023-05-04T14:59:26.486Z,58.73
2023-05-04T15:01:55.475Z,58.01
2023-05-04T15:04:22.852Z,57.60
2023-05-04T15:06:49.967Z,56.30
2023-05-04T15:09:16.919Z,55.99
2023-05-04T15:11:44.069Z,55.19
2023-05-04T15:14:11.276Z,55.66
2023-05-04T15:16:38.796Z,55.21
2023-05-04T15:19:06.548Z,55.06
2023-05-04T15:21:33.928Z,55.74
2023-05-04T15:24:01.534Z,55.29
2023-05-04T15:26:31.104Z,55.62
2023-05-04T15:28:58.253Z,54.67
2023-05-04T15:31:25.505Z,54.77
2023-05-04T15:33:52.536Z,53.18
2023-05-04T15:36:19.694Z,53.07
2023-05-04T15:38:46.940Z,53.34
2023-05-04T15:41:24.136Z,49.54
2023-05-04T15:43:51.236Z,49.20
2023-05-04T15:46:18.309Z,50.99
2023-05-04T15:48:45.318Z,50.94
2023-05-04T15:51:12.380Z,50.18
2023-05-04T15:53:39.932Z,47.23
2023-05-04T15:56:06.880Z,45.42
2023-05-04T15:58:34.093Z,46.93
2023-05-04T16:01:04.069Z,46.18
2023-05-04T16:03:32.813Z,44.12
2023-05-04T16:05:59.785Z,45.92
2023-05-04T16:08:26.943Z,46.20
2023-05-04T16:10:54.330Z,47.40
2023-05-04T16:13:21.430Z,47.60
2023-05-04T16:15:51.745Z,48.23
2023-05-04T16:18:18.735Z,46.18
2023-05-04T16:20:46.437Z,47.74
2023-05-04T16:23:15.147Z,44.26
2023-05-04T16:25:42.417Z,42.63
2023-05-04T16:28:09.765Z,45.36
2023-05-04T16:30:37.389Z,46.49
2023-05-04T16:33:04.921Z,47.02
2023-05-04T16:35:31.991Z,46.86
2023-05-04T16:37:59.590Z,50.57
2023-05-04T16:40:26.860Z,50.60
2023-05-04T16:42:53.954Z,50.51
2023-05-04T16:45:21.047Z,46.34
2023-05-04T16:47:47.965Z,46.39
2023-05-04T16:50:15.127Z,45.33
2023-05-04T16:52:42.283Z,44.98
2023-05-04T16:55:11.856Z,46.36
2023-05-04T16:57:39.539Z,48.86
2023-05-04T17:00:07.843Z,47.80
2023-05-04T17:02:38.063Z,46.54
2023-05-04T17:05:10.493Z,46.87
2023-05-04T17:07:40.142Z,44.57
2023-05-04T17:10:08.549Z,45.19
2023-05-04T17:12:36.356Z,43.67
2023-05-04T17:15:03.979Z,46.55
2023-05-04T17:17:31.078Z,43.72
2023-05-04T17:19:58.314Z,45.60
2023-05-04T17:22:25.553Z,45.66
2023-05-04T17:24:52.650Z,45.10
2023-05-04T17:27:19.619Z,44.22
2023-05-04T17:29:46.783Z,42.96
2023-05-04T17:32:13.928Z,42.96
2023-05-04T17:34:40.997Z,42.02
2023-05-04T17:37:07.988Z,41.96
2023-05-04T17:39:34.944Z,41.97
2023-05-04T17:42:01.924Z,42.43
2023-05-04T17:44:29.971Z,42.52
2023-05-04T17:46:56.961Z,43.17
2023-05-04T17:49:23.932Z,43.03
2023-05-04T17:51:51.110Z,42.41
2023-05-04T17:54:18.042Z,42.37
2023-05-04T17:56:44.948Z,42.00
2023-05-04T17:59:11.894Z,41.90
2023-05-04T18:01:39.082Z,40.92
2023-05-04T18:04:06.099Z,41.15
2023-05-04T18:06:33.491Z,40.69
2023-05-04T18:09:01.674Z,41.05
2023-05-04T18:11:28.723Z,40.48
2023-05-04T18:13:56.753Z,41.24
2023-05-04T18:16:24.885Z,41.01
2023-05-04T18:18:52.485Z,41.77
2023-05-04T18:21:19.988Z,42.24
2023-05-04T18:23:47.273Z,41.94
2023-05-04T18:26:22.662Z,42.21
2023-05-04T18:28:50.080Z,43.25
2023-05-04T18:31:17.655Z,43.34
2023-05-04T18:33:45.231Z,42.87
2023-05-04T18:36:14.905Z,43.13
2023-05-04T18:38:42.221Z,46.67
2023-05-04T18:41:09.527Z,45.71
2023-05-04T18:43:36.520Z,46.93
2023-05-04T18:46:07.656Z,46.30
2023-05-04T18:48:34.981Z,45.95
2023-05-04T18:51:02.983Z,46.49
2023-05-04T18:53:30.031Z,46.97
2023-05-04T18:56:06.589Z,47.44
2023-05-04T18:58:34.356Z,47.66
2023-05-04T19:01:01.447Z,48.11
2023-05-04T19:03:28.822Z,47.85
2023-05-04T19:05:56.277Z,47.91
2023-05-04T19:08:23.295Z,47.88
2023-05-04T19:10:50.419Z,47.80
2023-05-04T19:13:17.856Z,48.37
2023-05-04T19:15:45.581Z,48.30
2023-05-04T19:18:12.589Z,48.74
2023-05-04T19:20:39.930Z,49.46
2023-05-04T19:23:06.988Z,50.01
2023-05-04T19:25:35.268Z,50.24
2023-05-04T19:28:09.967Z,50.79
2023-05-04T19:30:37.645Z,50.05
2023-05-04T19:33:06.845Z,50.35
2023-05-04T19:35:34.127Z,51.47
2023-05-04T19:38:06.527Z,50.63
2023-05-04T19:40:34.644Z,50.36
2023-05-04T19:43:01.664Z,50.47
2023-05-04T19:45:28.717Z,50.87
2023-05-04T19:47:55.880Z,51.12
2023-05-04T19:50:23.681Z,51.16
2023-05-04T19:52:51.761Z,50.97
2023-05-04T19:55:18.838Z,51.11
2023-05-04T19:57:47.828Z,51.53
2023-05-04T20:00:17.155Z,51.55
2023-05-04T20:02:44.304Z,52.47
2023-05-04T20:05:11.330Z,52.23
2023-05-04T20:07:38.611Z,52.51
2023-05-04T20:10:06.407Z,52.75
2023-05-04T20:12:33.960Z,52.62
2023-05-04T20:15:01.229Z,52.41
2023-05-04T20:17:28.599Z,52.94
2023-05-04T20:19:56.022Z,53.41
2023-05-04T20:22:22.985Z,53.17
2023-05-04T20:24:50.420Z,52.96
2023-05-04T20:27:17.466Z,53.16
2023-05-04T20:29:45.440Z,53.13
2023-05-04T20:32:12.470Z,53.16
2023-05-04T20:34:39.840Z,52.74
2023-05-04T20:37:06.821Z,52.81
2023-05-04T20:39:34.041Z,53.46
2023-05-04T20:42:01.508Z,53.58
2023-05-04T20:44:28.570Z,54.03
2023-05-04T20:46:55.547Z,54.13
2023-05-04T20:49:22.671Z,53.85
2023-05-04T20:51:49.791Z,54.16
2023-05-04T20:54:17.303Z,54.38
2023-05-04T20:56:44.467Z,54.72
2023-05-04T20:59:11.476Z,54.96
2023-05-04T21:01:38.962Z,54.88
2023-05-04T21:04:06.313Z,54.64
2023-05-04T21:06:33.291Z,54.79
2023-05-04T21:09:02.026Z,55.03
2023-05-04T21:11:28.941Z,54.76
2023-05-04T21:13:55.936Z,54.80
2023-05-04T21:16:26.183Z,55.22
2023-05-04T21:18:53.221Z,55.55
2023-05-04T21:21:20.129Z,55.78
2023-05-04T21:23:47.073Z,56.04
2023-05-04T21:26:13.997Z,56.11
2023-05-04T21:28:40.914Z,56.35
2023-05-04T21:31:09.142Z,56.36
2023-05-04T21:33:36.503Z,56.84
2023-05-04T21:36:16.584Z,56.87
2023-05-04T21:38:43.735Z,56.76
2023-05-04T21:41:14.378Z,56.46
2023-05-04T21:43:42.165Z,56.78
2023-05-04T21:46:09.291Z,56.59
2023-05-04T21:48:36.592Z,56.59
2023-05-04T21:51:03.550Z,56.56
2023-05-04T21:53:33.450Z,56.68
2023-05-04T21:56:10.400Z,56.85
2023-05-04T21:58:39.785Z,56.49
2023-05-04T22:01:14.758Z,56.83
2023-05-04T22:03:41.757Z,56.63
2023-05-04T22:06:08.840Z,56.45
2023-05-04T22:08:35.848Z,56.17
2023-05-04T22:11:03.089Z,56.01
2023-05-04T22:13:30.042Z,55.68
2023-05-04T22:15:57.117Z,55.76
2023-05-04T22:18:24.123Z,55.80
2023-05-04T22:20:51.176Z,55.40
2023-05-04T22:23:18.142Z,55.18
2023-05-04T22:25:45.318Z,55.06
2023-05-04T22:28:12.256Z,55.63
2023-05-04T22:30:39.850Z,55.49
2023-05-04T22:33:06.997Z,55.76
2023-05-04T22:35:33.982Z,55.51
2023-05-04T22:38:00.915Z,55.61
2023-05-04T22:40:30.902Z,55.72
2023-05-04T22:42:59.334Z,55.20
2023-05-04T22:45:26.317Z,55.42
2023-05-04T22:47:53.526Z,55.18
2023-05-04T22:50:20.805Z,55.47
2023-05-04T22:52:47.976Z,55.72
2023-05-04T22:55:14.970Z,55.19
2023-05-04T22:57:42.029Z,55.86
2023-05-04T23:00:10.389Z,55.53
2023-05-04T23:02:37.832Z,55.55
2023-05-04T23:05:06.015Z,55.22
2023-05-04T23:07:33.200Z,55.34
2023-05-04T23:10:00.372Z,55.44
2023-05-04T23:12:28.766Z,55.74
2023-05-04T23:14:55.866Z,55.75
2023-05-04T23:17:22.988Z,56.14
2023-05-04T23:19:51.034Z,56.25
2023-05-04T23:22:17.944Z,56.38
2023-05-04T23:24:45.286Z,55.87
2023-05-04T23:27:12.556Z,56.33
2023-05-04T23:29:41.778Z,55.96
2023-05-04T23:32:09.064Z,56.29
2023-05-04T23:34:36.174Z,56.08
2023-05-04T23:37:03.184Z,56.10
2023-05-04T23:39:30.389Z,56.44
2023-05-04T23:41:57.994Z,55.82
2023-05-04T23:44:25.385Z,55.75
2023-05-04T23:46:55.184Z,56.10
2023-05-04T23:49:22.193Z,55.84
2023-05-04T23:51:49.131Z,55.78
2023-05-04T23:54:19.377Z,55.77
2023-05-04T23:56:46.828Z,55.96
2023-05-04T23:59:14.120Z,56.05
